sensor_id;sensor_type;location;lat;lon;timestamp;pressure;altitude;pressure_sealevel;temperature;humidity
51289;BME280;37372;52.294;5.152;2022-09-17T00:01:54;101420.63;;;10.32;100.00
51289;BME280;37372;52.294;5.152;2022-09-17T00:04:19;101410.22;;;10.29;100.00
51289;BME280;37372;52.294;5.152;2022-09-17T00:06:45;101420.59;;;10.25;100.00
51289;BME280;37372;52.294;5.152;2022-09-17T00:09:10;101418.19;;;10.20;100.00
51289;BME280;37372;52.294;5.152;2022-09-17T00:11:38;101420.22;;;10.23;100.00
51289;BME280;37372;52.294;5.152;2022-09-17T00:14:05;101435.06;;;10.31;100.00
51289;BME280;37372;52.294;5.152;2022-09-17T00:16:40;101427.88;;;10.51;100.00
51289;BME280;37372;52.294;5.152;2022-09-17T00:19:09;101427.88;;;10.58;100.00
51289;BME280;37372;52.294;5.152;2022-09-17T00:21:36;101423.84;;;10.63;100.00
51289;BME280;37372;52.294;5.152;2022-09-17T00:24:04;101424.25;;;10.65;100.00
51289;BME280;37372;52.294;5.152;2022-09-17T00:26:31;101426.28;;;10.61;100.00
51289;BME280;37372;52.294;5.152;2022-09-17T00:28:57;101425.84;;;10.55;100.00
51289;BME280;37372;52.294;5.152;2022-09-17T00:31:23;101422.66;;;10.57;100.00
51289;BME280;37372;52.294;5.152;2022-09-17T00:33:49;101427.44;;;10.53;100.00
51289;BME280;37372;52.294;5.152;2022-09-17T00:36:15;101422.25;;;10.48;100.00
51289;BME280;37372;52.294;5.152;2022-09-17T00:38:40;101430.66;;;10.44;100.00
51289;BME280;37372;52.294;5.152;2022-09-17T00:41:06;101429.47;;;10.41;100.00
51289;BME280;37372;52.294;5.152;2022-09-17T00:43:39;101441.09;;;10.43;100.00
51289;BME280;37372;52.294;5.152;2022-09-17T00:46:21;101428.66;;;10.45;100.00
51289;BME280;37372;52.294;5.152;2022-09-17T00:48:48;101433.47;;;10.48;100.00
51289;BME280;37372;52.294;5.152;2022-09-17T00:51:22;101423.88;;;10.49;100.00
51289;BME280;37372;52.294;5.152;2022-09-17T00:53:50;101434.66;;;10.50;100.00
51289;BME280;37372;52.294;5.152;2022-09-17T00:56:23;101432.69;;;10.51;100.00
51289;BME280;37372;52.294;5.152;2022-09-17T00:58:50;101417.47;;;10.48;100.00
51289;BME280;37372;52.294;5.152;2022-09-17T01:01:16;101427.84;;;10.48;98.61
51289;BME280;37372;52.294;5.152;2022-09-17T01:03:42;101435.50;;;10.51;100.00
51289;BME280;37372;52.294;5.152;2022-09-17T01:06:34;101428.25;;;10.50;99.35
51289;BME280;37372;52.294;5.152;2022-09-17T01:09:24;101439.06;;;10.48;98.67
51289;BME280;37372;52.294;5.152;2022-09-17T01:20:04;101449.50;;;10.61;95.52
51289;BME280;37372;52.294;5.152;2022-09-17T01:23:12;101444.69;;;10.73;92.72
51289;BME280;37372;52.294;5.152;2022-09-17T01:33:57;101445.47;;;10.80;93.53
51289;BME280;37372;52.294;5.152;2022-09-17T01:36:39;101447.50;;;10.69;95.34
51289;BME280;37372;52.294;5.152;2022-09-17T01:42:23;101436.69;;;10.46;97.02
51289;BME280;37372;52.294;5.152;2022-09-17T01:47:33;101436.22;;;10.26;99.84
51289;BME280;37372;52.294;5.152;2022-09-17T01:50:19;101441.41;;;10.17;100.00
51289;BME280;37372;52.294;5.152;2022-09-17T01:52:49;101447.84;;;10.10;100.00
51289;BME280;37372;52.294;5.152;2022-09-17T01:55:18;101450.19;;;10.05;100.00
51289;BME280;37372;52.294;5.152;2022-09-17T01:57:52;101449.44;;;10.08;100.00
51289;BME280;37372;52.294;5.152;2022-09-17T02:00:20;101446.22;;;10.06;100.00
51289;BME280;37372;52.294;5.152;2022-09-17T02:02:54;101454.22;;;10.04;100.00
51289;BME280;37372;52.294;5.152;2022-09-17T02:08:00;101458.63;;;9.97;100.00
51289;BME280;37372;52.294;5.152;2022-09-17T02:10:30;101453.78;;;9.94;100.00
51289;BME280;37372;52.294;5.152;2022-09-17T02:13:00;101451.81;;;9.95;100.00
51289;BME280;37372;52.294;5.152;2022-09-17T02:15:32;101456.19;;;9.96;100.00
51289;BME280;37372;52.294;5.152;2022-09-17T02:18:06;101465.81;;;9.95;100.00
51289;BME280;37372;52.294;5.152;2022-09-17T02:20:41;101462.19;;;9.94;98.42
51289;BME280;37372;52.294;5.152;2022-09-17T02:23:13;101470.59;;;9.91;99.23
51289;BME280;37372;52.294;5.152;2022-09-17T02:25:57;101464.97;;;9.80;100.00
51289;BME280;37372;52.294;5.152;2022-09-17T02:28:37;101466.13;;;9.79;100.00
51289;BME280;37372;52.294;5.152;2022-09-17T02:31:05;101460.91;;;9.74;100.00
51289;BME280;37372;52.294;5.152;2022-09-17T02:33:32;101462.13;;;9.69;100.00
51289;BME280;37372;52.294;5.152;2022-09-17T02:35:58;101464.50;;;9.71;100.00
51289;BME280;37372;52.294;5.152;2022-09-17T02:38:25;101466.09;;;9.65;100.00
51289;BME280;37372;52.294;5.152;2022-09-17T02:41:15;101475.69;;;9.64;100.00
51289;BME280;37372;52.294;5.152;2022-09-17T02:57:32;101467.72;;;9.69;100.00
51289;BME280;37372;52.294;5.152;2022-09-17T03:02:41;101457.31;;;9.70;100.00
51289;BME280;37372;52.294;5.152;2022-09-17T03:05:09;101468.09;;;9.68;100.00
51289;BME280;37372;52.294;5.152;2022-09-17T03:07:36;101464.50;;;9.67;100.00
51289;BME280;37372;52.294;5.152;2022-09-17T03:10:01;101463.69;;;9.60;100.00
51289;BME280;37372;52.294;5.152;2022-09-17T03:12:27;101466.81;;;9.51;100.00
51289;BME280;37372;52.294;5.152;2022-09-17T03:14:53;101470.84;;;9.53;100.00
51289;BME280;37372;52.294;5.152;2022-09-17T03:17:18;101457.22;;;9.48;100.00
51289;BME280;37372;52.294;5.152;2022-09-17T03:19:43;101463.66;;;9.56;97.60
51289;BME280;37372;52.294;5.152;2022-09-17T03:22:09;101454.03;;;9.53;96.80
51289;BME280;37372;52.294;5.152;2022-09-17T03:24:34;101462.88;;;9.63;93.33
51289;BME280;37372;52.294;5.152;2022-09-17T03:27:00;101463.72;;;9.67;94.24
51289;BME280;37372;52.294;5.152;2022-09-17T03:29:25;101454.91;;;9.68;93.86
51289;BME280;37372;52.294;5.152;2022-09-17T03:31:50;101457.34;;;9.77;92.07
51289;BME280;37372;52.294;5.152;2022-09-17T03:34:16;101458.16;;;9.81;92.94
51289;BME280;37372;52.294;5.152;2022-09-17T03:36:41;101457.38;;;9.88;93.49
51289;BME280;37372;52.294;5.152;2022-09-17T03:39:07;101471.81;;;9.93;93.98
51289;BME280;37372;52.294;5.152;2022-09-17T03:41:32;101483.84;;;10.05;93.63
51289;BME280;37372;52.294;5.152;2022-09-17T03:43:58;101483.88;;;10.15;93.16
51289;BME280;37372;52.294;5.152;2022-09-17T03:46:23;101479.13;;;10.30;92.85
51289;BME280;37372;52.294;5.152;2022-09-17T03:48:48;101483.53;;;10.35;94.46
51289;BME280;37372;52.294;5.152;2022-09-17T03:51:14;101468.72;;;10.34;96.12
51289;BME280;37372;52.294;5.152;2022-09-17T03:53:39;101462.72;;;10.29;99.33
51289;BME280;37372;52.294;5.152;2022-09-17T03:56:05;101457.00;;;10.07;100.00
51289;BME280;37372;52.294;5.152;2022-09-17T03:58:31;101464.97;;;9.80;100.00
51289;BME280;37372;52.294;5.152;2022-09-17T04:00:57;101464.47;;;9.64;100.00
51289;BME280;37372;52.294;5.152;2022-09-17T04:03:24;101465.28;;;9.57;100.00
51289;BME280;37372;52.294;5.152;2022-09-17T04:05:50;101465.19;;;9.39;100.00
51289;BME280;37372;52.294;5.152;2022-09-17T04:08:15;101472.75;;;9.35;100.00
51289;BME280;37372;52.294;5.152;2022-09-17T04:10:42;101465.16;;;9.35;100.00
51289;BME280;37372;52.294;5.152;2022-09-17T04:13:09;101484.75;;;9.32;100.00
51289;BME280;37372;52.294;5.152;2022-09-17T04:15:34;101493.16;;;9.35;100.00
51289;BME280;37372;52.294;5.152;2022-09-17T04:17:59;101490.78;;;9.41;100.00
51289;BME280;37372;52.294;5.152;2022-09-17T04:20:25;101490.81;;;9.48;100.00
51289;BME280;37372;52.294;5.152;2022-09-17T04:22:51;101483.63;;;9.47;100.00
51289;BME280;37372;52.294;5.152;2022-09-17T04:25:16;101486.06;;;9.52;100.00
51289;BME280;37372;52.294;5.152;2022-09-17T04:27:43;101496.41;;;9.45;99.66
51289;BME280;37372;52.294;5.152;2022-09-17T04:30:08;101491.19;;;9.43;99.94
51289;BME280;37372;52.294;5.152;2022-09-17T04:32:34;101499.53;;;9.32;100.00
51289;BME280;37372;52.294;5.152;2022-09-17T04:34:59;101494.69;;;9.26;100.00
51289;BME280;37372;52.294;5.152;2022-09-17T04:37:25;101490.25;;;9.18;100.00
51289;BME280;37372;52.294;5.152;2022-09-17T04:39:51;101494.66;;;9.19;100.00
51289;BME280;37372;52.294;5.152;2022-09-17T04:42:16;101491.03;;;9.15;100.00
51289;BME280;37372;52.294;5.152;2022-09-17T04:44:42;101487.44;;;9.14;100.00
51289;BME280;37372;52.294;5.152;2022-09-17T04:47:07;101496.63;;;9.11;100.00
51289;BME280;37372;52.294;5.152;2022-09-17T04:49:32;101481.00;;;9.10;100.00
51289;BME280;37372;52.294;5.152;2022-09-17T04:51:58;101489.75;;;9.05;100.00
51289;BME280;37372;52.294;5.152;2022-09-17T04:54:23;101494.56;;;9.04;100.00
51289;BME280;37372;52.294;5.152;2022-09-17T04:56:49;101496.94;;;9.02;100.00
51289;BME280;37372;52.294;5.152;2022-09-17T04:59:14;101497.72;;;8.99;100.00
51289;BME280;37372;52.294;5.152;2022-09-17T05:01:40;101502.47;;;8.95;100.00
51289;BME280;37372;52.294;5.152;2022-09-17T05:04:07;101500.47;;;8.92;100.00
51289;BME280;37372;52.294;5.152;2022-09-17T05:06:32;101507.25;;;8.91;100.00
51289;BME280;37372;52.294;5.152;2022-09-17T05:08:58;101508.06;;;8.95;100.00
51289;BME280;37372;52.294;5.152;2022-09-17T05:11:23;101509.28;;;8.94;100.00
51289;BME280;37372;52.294;5.152;2022-09-17T05:13:49;101510.56;;;9.04;100.00
51289;BME280;37372;52.294;5.152;2022-09-17T05:16:14;101511.34;;;9.01;100.00
51289;BME280;37372;52.294;5.152;2022-09-17T05:18:40;101502.16;;;9.04;100.00
51289;BME280;37372;52.294;5.152;2022-09-17T05:21:05;101511.34;;;9.04;100.00
51289;BME280;37372;52.294;5.152;2022-09-17T05:23:30;101512.94;;;9.05;100.00
51289;BME280;37372;52.294;5.152;2022-09-17T05:25:59;101514.63;;;9.17;100.00
51289;BME280;37372;52.294;5.152;2022-09-17T05:28:26;101522.69;;;9.26;100.00
51289;BME280;37372;52.294;5.152;2022-09-17T05:30:51;101537.56;;;9.37;100.00
51289;BME280;37372;52.294;5.152;2022-09-17T05:33:17;101532.41;;;9.43;100.00
51289;BME280;37372;52.294;5.152;2022-09-17T05:35:43;101538.00;;;9.39;100.00
51289;BME280;37372;52.294;5.152;2022-09-17T05:38:09;101533.97;;;9.40;100.00
51289;BME280;37372;52.294;5.152;2022-09-17T05:40:34;101537.13;;;9.31;100.00
51289;BME280;37372;52.294;5.152;2022-09-17T05:43:03;101527.47;;;9.25;100.00
51289;BME280;37372;52.294;5.152;2022-09-17T05:45:29;101529.06;;;9.23;100.00
51289;BME280;37372;52.294;5.152;2022-09-17T05:48:00;101528.28;;;9.26;100.00
51289;BME280;37372;52.294;5.152;2022-09-17T05:50:27;101537.09;;;9.28;100.00
51289;BME280;37372;52.294;5.152;2022-09-17T05:52:53;101519.19;;;9.40;100.00
51289;BME280;37372;52.294;5.152;2022-09-17T05:55:19;101531.59;;;9.46;100.00
51289;BME280;37372;52.294;5.152;2022-09-17T05:57:46;101532.44;;;9.50;100.00
51289;BME280;37372;52.294;5.152;2022-09-17T06:00:12;101530.06;;;9.55;100.00
51289;BME280;37372;52.294;5.152;2022-09-17T06:02:37;101532.47;;;9.53;100.00
51289;BME280;37372;52.294;5.152;2022-09-17T06:05:04;101535.63;;;9.48;100.00
51289;BME280;37372;52.294;5.152;2022-09-17T06:07:30;101544.44;;;9.54;100.00
51289;BME280;37372;52.294;5.152;2022-09-17T06:09:55;101538.09;;;9.61;100.00
51289;BME280;37372;52.294;5.152;2022-09-17T06:12:21;101537.31;;;9.64;100.00
51289;BME280;37372;52.294;5.152;2022-09-17T06:14:47;101540.56;;;9.73;100.00
51289;BME280;37372;52.294;5.152;2022-09-17T06:17:12;101538.97;;;9.72;100.00
51289;BME280;37372;52.294;5.152;2022-09-17T06:19:38;101544.59;;;9.72;100.00
51289;BME280;37372;52.294;5.152;2022-09-17T06:22:03;101539.00;;;9.79;100.00
51289;BME280;37372;52.294;5.152;2022-09-17T06:24:30;101540.66;;;9.87;100.00
51289;BME280;37372;52.294;5.152;2022-09-17T06:26:55;101539.03;;;9.86;100.00
51289;BME280;37372;52.294;5.152;2022-09-17T06:29:21;101544.59;;;9.79;100.00
51289;BME280;37372;52.294;5.152;2022-09-17T06:31:47;101541.38;;;9.73;100.00
51289;BME280;37372;52.294;5.152;2022-09-17T06:34:13;101546.97;;;9.70;100.00
51289;BME280;37372;52.294;5.152;2022-09-17T06:36:38;101550.56;;;9.74;100.00
51289;BME280;37372;52.294;5.152;2022-09-17T06:39:04;101556.72;;;9.97;100.00
51289;BME280;37372;52.294;5.152;2022-09-17T06:41:29;101551.22;;;10.30;100.00
51289;BME280;37372;52.294;5.152;2022-09-17T06:43:54;101567.34;;;10.61;100.00
51289;BME280;37372;52.294;5.152;2022-09-17T06:46:20;101574.56;;;10.66;100.00
51289;BME280;37372;52.294;5.152;2022-09-17T06:48:45;101564.94;;;10.63;100.00
51289;BME280;37372;52.294;5.152;2022-09-17T06:51:11;101566.09;;;10.45;100.00
51289;BME280;37372;52.294;5.152;2022-09-17T06:53:37;101559.19;;;10.24;100.00
51289;BME280;37372;52.294;5.152;2022-09-17T06:56:04;101558.34;;;10.06;100.00
51289;BME280;37372;52.294;5.152;2022-09-17T06:58:30;101562.31;;;9.97;100.00
51289;BME280;37372;52.294;5.152;2022-09-17T07:00:59;101563.06;;;9.91;100.00
51289;BME280;37372;52.294;5.152;2022-09-17T07:03:25;101567.06;;;9.86;100.00
51289;BME280;37372;52.294;5.152;2022-09-17T07:05:50;101564.66;;;9.88;100.00
51289;BME280;37372;52.294;5.152;2022-09-17T07:08:16;101573.53;;;9.97;100.00
51289;BME280;37372;52.294;5.152;2022-09-17T07:10:42;101563.16;;;10.09;100.00
51289;BME280;37372;52.294;5.152;2022-09-17T07:13:07;101565.66;;;10.32;100.00
51289;BME280;37372;52.294;5.152;2022-09-17T07:15:33;101555.31;;;10.54;100.00
51289;BME280;37372;52.294;5.152;2022-09-17T07:17:58;101553.72;;;10.74;100.00
51289;BME280;37372;52.294;5.152;2022-09-17T07:20:24;101559.34;;;10.74;100.00
51289;BME280;37372;52.294;5.152;2022-09-17T07:22:56;101560.94;;;10.75;100.00
51289;BME280;37372;52.294;5.152;2022-09-17T07:25:23;101551.31;;;10.73;100.00
51289;BME280;37372;52.294;5.152;2022-09-17T07:27:49;101558.53;;;10.74;100.00
51289;BME280;37372;52.294;5.152;2022-09-17T07:30:15;101560.13;;;10.78;100.00
51289;BME280;37372;52.294;5.152;2022-09-17T07:32:40;101549.72;;;10.82;100.00
51289;BME280;37372;52.294;5.152;2022-09-17T07:35:06;101552.53;;;10.86;100.00
51289;BME280;37372;52.294;5.152;2022-09-17T07:37:32;101551.72;;;10.78;98.80
51289;BME280;37372;52.294;5.152;2022-09-17T07:39:57;101549.72;;;10.79;100.00
51289;BME280;37372;52.294;5.152;2022-09-17T07:42:22;101550.53;;;10.79;99.74
51289;BME280;37372;52.294;5.152;2022-09-17T07:44:48;101542.50;;;10.89;100.00
51289;BME280;37372;52.294;5.152;2022-09-17T07:47:13;101559.75;;;10.98;98.77
51289;BME280;37372;52.294;5.152;2022-09-17T07:49:38;101558.13;;;11.04;98.17
51289;BME280;37372;52.294;5.152;2022-09-17T07:52:04;101551.31;;;11.19;96.47
51289;BME280;37372;52.294;5.152;2022-09-17T07:54:31;101550.50;;;11.40;97.07
51289;BME280;37372;52.294;5.152;2022-09-17T07:56:57;101570.91;;;11.73;96.52
51289;BME280;37372;52.294;5.152;2022-09-17T07:59:23;101583.72;;;11.78;91.62
51289;BME280;37372;52.294;5.152;2022-09-17T08:01:48;101581.75;;;11.67;93.77
51289;BME280;37372;52.294;5.152;2022-09-17T08:04:14;101580.19;;;11.45;91.13
51289;BME280;37372;52.294;5.152;2022-09-17T08:06:40;101585.00;;;11.26;93.08
51289;BME280;37372;52.294;5.152;2022-09-17T08:09:05;101582.22;;;11.08;95.69
51289;BME280;37372;52.294;5.152;2022-09-17T08:11:31;101583.03;;;11.13;97.72
51289;BME280;37372;52.294;5.152;2022-09-17T08:13:57;101572.16;;;11.36;98.92
51289;BME280;37372;52.294;5.152;2022-09-17T08:16:23;101584.19;;;11.58;96.55
51289;BME280;37372;52.294;5.152;2022-09-17T08:18:53;101574.09;;;11.89;95.99
51289;BME280;37372;52.294;5.152;2022-09-17T08:21:19;101576.00;;;12.14;94.08
51289;BME280;37372;52.294;5.152;2022-09-17T08:23:45;101569.94;;;12.26;92.77
51289;BME280;37372;52.294;5.152;2022-09-17T08:26:14;101561.50;;;12.26;92.12
51289;BME280;37372;52.294;5.152;2022-09-17T08:28:43;101575.22;;;12.10;90.95
51289;BME280;37372;52.294;5.152;2022-09-17T08:31:09;101577.63;;;12.08;88.30
51289;BME280;37372;52.294;5.152;2022-09-17T08:33:36;101576.00;;;12.10;88.74
51289;BME280;37372;52.294;5.152;2022-09-17T08:36:02;101572.38;;;12.13;87.81
51289;BME280;37372;52.294;5.152;2022-09-17T08:38:29;101578.38;;;12.26;87.58
51289;BME280;37372;52.294;5.152;2022-09-17T08:46:32;101580.00;;;12.90;87.24
51289;BME280;37372;52.294;5.152;2022-09-17T08:49:16;101580.63;;;13.09;83.78
51289;BME280;37372;52.294;5.152;2022-09-17T09:00:14;101590.94;;;13.33;82.54
51289;BME280;37372;52.294;5.152;2022-09-17T09:02:54;101579.16;;;12.93;89.08
51289;BME280;37372;52.294;5.152;2022-09-17T09:05:44;101585.78;;;12.65;86.29
51289;BME280;37372;52.294;5.152;2022-09-17T09:08:57;101591.19;;;12.34;87.37
51289;BME280;37372;52.294;5.152;2022-09-17T09:11:05;101583.94;;;12.37;89.13
51289;BME280;37372;52.294;5.152;2022-09-17T09:13:37;101577.44;;;12.44;91.64
51289;BME280;37372;52.294;5.152;2022-09-17T09:16:17;101586.22;;;12.56;90.81
51289;BME280;37372;52.294;5.152;2022-09-17T09:18:44;101585.34;;;12.70;89.88
51289;BME280;37372;52.294;5.152;2022-09-17T09:21:47;101576.34;;;12.90;88.35
51289;BME280;37372;52.294;5.152;2022-09-17T09:24:25;101570.44;;;13.29;86.96
51289;BME280;37372;52.294;5.152;2022-09-17T09:27:23;101582.13;;;14.03;83.97
51289;BME280;37372;52.294;5.152;2022-09-17T09:30:08;101586.34;;;14.22;80.63
51289;BME280;37372;52.294;5.152;2022-09-17T09:33:02;101607.78;;;13.78;82.52
51289;BME280;37372;52.294;5.152;2022-09-17T09:35:33;101622.75;;;12.71;98.57
51289;BME280;37372;52.294;5.152;2022-09-17T09:38:28;101610.63;;;11.79;100.00
51289;BME280;37372;52.294;5.152;2022-09-17T09:41:01;101613.91;;;11.20;100.00
51289;BME280;37372;52.294;5.152;2022-09-17T09:43:43;101608.69;;;11.00;100.00
51289;BME280;37372;52.294;5.152;2022-09-17T09:49:23;101599.47;;;11.03;100.00
51289;BME280;37372;52.294;5.152;2022-09-17T09:57:48;101609.06;;;11.56;100.00
51289;BME280;37372;52.294;5.152;2022-09-17T10:03:23;101606.03;;;12.35;100.00
51289;BME280;37372;52.294;5.152;2022-09-17T10:05:59;101604.44;;;12.37;100.00
51289;BME280;37372;52.294;5.152;2022-09-17T10:08:25;101608.41;;;12.44;100.00
51289;BME280;37372;52.294;5.152;2022-09-17T10:13:19;101599.28;;;12.22;100.00
51289;BME280;37372;52.294;5.152;2022-09-17T10:15:45;101602.19;;;11.97;100.00
51289;BME280;37372;52.294;5.152;2022-09-17T10:18:15;101598.53;;;12.07;100.00
51289;BME280;37372;52.294;5.152;2022-09-17T10:20:57;101601.22;;;12.39;100.00
51289;BME280;37372;52.294;5.152;2022-09-17T10:23:25;101593.56;;;12.36;100.00
51289;BME280;37372;52.294;5.152;2022-09-17T10:25:52;101595.28;;;12.08;100.00
51289;BME280;37372;52.294;5.152;2022-09-17T10:28:37;101594.94;;;11.99;100.00
51289;BME280;37372;52.294;5.152;2022-09-17T10:31:07;101591.34;;;11.95;100.00
51289;BME280;37372;52.294;5.152;2022-09-17T10:33:38;101588.91;;;12.04;100.00
51289;BME280;37372;52.294;5.152;2022-09-17T10:36:06;101586.50;;;12.06;100.00
51289;BME280;37372;52.294;5.152;2022-09-17T10:38:41;101589.66;;;12.19;100.00
51289;BME280;37372;52.294;5.152;2022-09-17T10:41:20;101582.81;;;12.24;95.49
51289;BME280;37372;52.294;5.152;2022-09-17T10:43:47;101582.34;;;12.32;94.05
51289;BME280;37372;52.294;5.152;2022-09-17T10:46:27;101581.47;;;12.50;97.16
51289;BME280;37372;52.294;5.152;2022-09-17T10:49:39;101578.09;;;12.69;97.23
51289;BME280;37372;52.294;5.152;2022-09-17T10:52:05;101580.78;;;12.87;94.50
51289;BME280;37372;52.294;5.152;2022-09-17T10:57:37;101564.47;;;13.16;86.66
51289;BME280;37372;52.294;5.152;2022-09-17T11:00:13;101560.75;;;13.34;89.12
51289;BME280;37372;52.294;5.152;2022-09-17T11:03:17;101565.03;;;13.45;83.46
51289;BME280;37372;52.294;5.152;2022-09-17T11:28:58;101568.22;;;13.85;76.36
51289;BME280;37372;52.294;5.152;2022-09-17T11:34:16;101570.06;;;13.65;78.40
51289;BME280;37372;52.294;5.152;2022-09-17T11:37:09;101564.19;;;14.21;77.55
51289;BME280;37372;52.294;5.152;2022-09-17T11:39:44;101593.34;;;14.41;77.17
51289;BME280;37372;52.294;5.152;2022-09-17T11:42:46;101585.22;;;13.78;80.68
51289;BME280;37372;52.294;5.152;2022-09-17T11:45:28;101592.41;;;12.96;84.91
51289;BME280;37372;52.294;5.152;2022-09-17T11:48:11;101579.09;;;12.37;90.65
51289;BME280;37372;52.294;5.152;2022-09-17T11:50:45;101576.75;;;12.29;96.31
51289;BME280;37372;52.294;5.152;2022-09-17T11:53:21;101575.75;;;12.60;95.88
51289;BME280;37372;52.294;5.152;2022-09-17T11:55:52;101585.31;;;12.74;91.76
51289;BME280;37372;52.294;5.152;2022-09-17T11:58:35;101572.97;;;13.13;86.49
51289;BME280;37372;52.294;5.152;2022-09-17T12:01:10;101564.25;;;13.45;84.71
51289;BME280;37372;52.294;5.152;2022-09-17T12:03:42;101573.88;;;13.85;82.13
51289;BME280;37372;52.294;5.152;2022-09-17T12:06:14;101574.13;;;14.29;79.77
51289;BME280;37372;52.294;5.152;2022-09-17T12:09:02;101582.03;;;14.41;79.14
51289;BME280;37372;52.294;5.152;2022-09-17T12:11:46;101578.34;;;14.17;82.56
51289;BME280;37372;52.294;5.152;2022-09-17T12:14:26;101574.66;;;13.89;83.30
51289;BME280;37372;52.294;5.152;2022-09-17T12:16:57;101577.81;;;13.92;85.96
51289;BME280;37372;52.294;5.152;2022-09-17T12:19:33;101577.81;;;13.92;75.30
51289;BME280;37372;52.294;5.152;2022-09-17T12:22:20;101571.94;;;14.13;74.26
51289;BME280;37372;52.294;5.152;2022-09-17T12:24:51;101583.00;;;14.31;73.84
51289;BME280;37372;52.294;5.152;2022-09-17T12:43:40;101578.44;;;14.10;64.81
51289;BME280;37372;52.294;5.152;2022-09-17T12:46:32;101568.22;;;14.20;69.00
51289;BME280;37372;52.294;5.152;2022-09-17T12:49:06;101562.81;;;14.32;66.89
51289;BME280;37372;52.294;5.152;2022-09-17T12:51:56;101571.78;;;14.58;67.06
51289;BME280;37372;52.294;5.152;2022-09-17T12:54:41;101574.91;;;14.91;62.07
51289;BME280;37372;52.294;5.152;2022-09-17T12:57:19;101580.81;;;15.24;63.63
51289;BME280;37372;52.294;5.152;2022-09-17T12:59:52;101555.38;;;15.47;65.90
51289;BME280;37372;52.294;5.152;2022-09-17T13:10:39;101573.66;;;14.92;62.95
51289;BME280;37372;52.294;5.152;2022-09-17T13:18:45;101600.41;;;15.11;61.61
51289;BME280;37372;52.294;5.152;2022-09-17T13:21:14;101574.97;;;15.58;64.55
51289;BME280;37372;52.294;5.152;2022-09-17T13:23:46;101575.09;;;15.27;68.80
51289;BME280;37372;52.294;5.152;2022-09-17T13:26:15;101585.44;;;14.29;79.44
51289;BME280;37372;52.294;5.152;2022-09-17T13:28:48;101586.47;;;13.74;89.19
51289;BME280;37372;52.294;5.152;2022-09-17T13:36:45;101593.19;;;13.00;88.68
51289;BME280;37372;52.294;5.152;2022-09-17T13:42:10;101593.03;;;13.18;90.08
51289;BME280;37372;52.294;5.152;2022-09-17T13:44:40;101590.34;;;13.53;89.04
51289;BME280;37372;52.294;5.152;2022-09-17T13:47:20;101586.78;;;13.83;82.70
51289;BME280;37372;52.294;5.152;2022-09-17T13:49:53;101606.66;;;14.06;80.75
51289;BME280;37372;52.294;5.152;2022-09-17T13:52:39;101610.59;;;14.16;78.94
51289;BME280;37372;52.294;5.152;2022-09-17T13:55:06;101602.16;;;13.78;77.79
51289;BME280;37372;52.294;5.152;2022-09-17T13:57:33;101595.19;;;13.52;79.46
51289;BME280;37372;52.294;5.152;2022-09-17T14:05:52;101604.13;;;13.43;78.17
51289;BME280;37372;52.294;5.152;2022-09-17T14:10:54;101596.69;;;13.64;74.96
51289;BME280;37372;52.294;5.152;2022-09-17T14:13:37;101595.41;;;13.68;77.30
51289;BME280;37372;52.294;5.152;2022-09-17T14:18:58;101595.00;;;13.70;74.92
51289;BME280;37372;52.294;5.152;2022-09-17T14:21:30;101586.00;;;13.82;76.63
51289;BME280;37372;52.294;5.152;2022-09-17T14:24:12;101589.94;;;13.88;76.52
51289;BME280;37372;52.294;5.152;2022-09-17T14:27:00;101596.31;;;13.96;74.10
51289;BME280;37372;52.294;5.152;2022-09-17T14:32:26;101586.50;;;14.08;73.77
51289;BME280;37372;52.294;5.152;2022-09-17T14:34:57;101582.94;;;14.34;75.35
51289;BME280;37372;52.294;5.152;2022-09-17T14:37:23;101592.31;;;14.59;74.84
51289;BME280;37372;52.294;5.152;2022-09-17T14:39:50;101587.53;;;14.52;70.75
51289;BME280;37372;52.294;5.152;2022-09-17T14:42:22;101583.13;;;14.51;73.93
51289;BME280;37372;52.294;5.152;2022-09-17T14:45:16;101595.63;;;14.53;70.02
51289;BME280;37372;52.294;5.152;2022-09-17T14:47:43;101592.34;;;14.55;64.23
51289;BME280;37372;52.294;5.152;2022-09-17T14:50:23;101593.13;;;14.59;65.39
51289;BME280;37372;52.294;5.152;2022-09-17T14:52:51;101592.91;;;14.73;66.27
51289;BME280;37372;52.294;5.152;2022-09-17T14:57:58;101603.47;;;14.69;61.13
51289;BME280;37372;52.294;5.152;2022-09-17T15:00:34;101595.75;;;14.43;63.07
51289;BME280;37372;52.294;5.152;2022-09-17T15:03:01;101592.06;;;14.46;65.25
51289;BME280;37372;52.294;5.152;2022-09-17T15:05:32;101588.97;;;14.67;65.55
51289;BME280;37372;52.294;5.152;2022-09-17T15:10:37;101604.00;;;14.88;64.08
51289;BME280;37372;52.294;5.152;2022-09-17T15:13:03;101611.38;;;14.78;65.53
51289;BME280;37372;52.294;5.152;2022-09-17T15:15:28;101591.69;;;14.44;69.33
51289;BME280;37372;52.294;5.152;2022-09-17T15:17:53;101600.75;;;13.97;70.83
51289;BME280;37372;52.294;5.152;2022-09-17T15:20:22;101593.03;;;13.63;75.24
51289;BME280;37372;52.294;5.152;2022-09-17T15:23:15;101587.22;;;13.43;76.04
51289;BME280;37372;52.294;5.152;2022-09-17T15:25:44;101596.19;;;13.31;76.32
51289;BME280;37372;52.294;5.152;2022-09-17T15:28:25;101592.16;;;13.25;76.52
51289;BME280;37372;52.294;5.152;2022-09-17T15:30:52;101599.38;;;13.33;76.45
51289;BME280;37372;52.294;5.152;2022-09-17T15:33:17;101593.75;;;13.33;77.39
51289;BME280;37372;52.294;5.152;2022-09-17T15:36:22;101598.56;;;13.36;76.85
51289;BME280;37372;52.294;5.152;2022-09-17T15:38:49;101588.81;;;13.44;76.55
51289;BME280;37372;52.294;5.152;2022-09-17T15:43:45;101587.00;;;13.65;75.63
51289;BME280;37372;52.294;5.152;2022-09-17T15:46:30;101587.84;;;13.62;75.66